Time;durP1;ratioP1;P1;durP2;ratioP2;P2;SDS_P1;SDS_P2;PMS_P1;PMS_P2;Temp;Humidity;BMP_temperature;BMP_pressure;BME280_temperature;BME280_humidity;BME280_pressure;Samples;Min_cycle;Max_cycle;Signal;HPM_P1;HPM_P2
2022/01/18 00:00:56;;;;;;;0.10;0.10;;;5.70;99.90;;;;;;5011993;28;20098;-71
2022/01/18 00:03:22;;;;;;;0.10;0.10;;;5.70;99.90;;;;;;5011942;28;20426;-71
2022/01/18 00:05:50;;;;;;;0.10;0.10;;;5.70;99.90;;;;;;4996608;28;20117;-70
2022/01/18 00:08:17;;;;;;;0.10;0.10;;;5.70;99.90;;;;;;4992738;28;20022;-69
2022/01/18 00:10:43;;;;;;;0.10;0.10;;;5.60;99.90;;;;;;5004752;28;20033;-70
2022/01/18 00:13:24;;;;;;;0.10;0.10;;;5.60;99.90;;;;;;5004044;28;20025;-71
2022/01/18 00:18:35;;;;;;;0.10;0.10;;;5.60;99.90;;;;;;4992716;28;20105;-70
2022/01/18 00:23:35;;;;;;;0.10;0.10;;;5.70;99.90;;;;;;5024543;28;20046;-70
2022/01/18 00:26:01;;;;;;;0.10;0.10;;;5.70;99.90;;;;;;5039397;28;20040;-71
2022/01/18 00:28:29;;;;;;;0.10;0.10;;;5.70;99.90;;;;;;5022130;28;20256;-71
2022/01/18 00:33:52;;;;;;;0.00;0.00;;;5.70;99.90;;;;;;5014519;28;20095;-71
2022/01/18 00:36:28;;;;;;;0.10;0.10;;;5.70;99.90;;;;;;5011048;28;20034;-72
2022/01/18 00:38:56;;;;;;;0.10;0.10;;;5.90;99.90;;;;;;5002408;28;20475;-71
2022/01/18 00:41:24;;;;;;;0.10;0.10;;;5.80;99.90;;;;;;5012063;28;20033;-71
2022/01/18 00:43:51;;;;;;;0.10;0.10;;;5.80;99.90;;;;;;5011213;28;20029;-71
2022/01/18 00:46:17;;;;;;;0.10;0.10;;;5.80;99.90;;;;;;4999507;28;20027;-70
2022/01/18 00:48:43;;;;;;;3.50;1.58;;;5.80;99.90;;;;;;4992055;28;20365;-72
2022/01/18 00:51:12;;;;;;;0.10;0.10;;;5.90;99.90;;;;;;4996514;28;20106;-71
2022/01/18 00:53:43;;;;;;;0.40;0.40;;;5.90;99.90;;;;;;5004771;28;20133;-72
2022/01/18 00:58:35;;;;;;;0.10;0.10;;;5.90;99.90;;;;;;5000333;28;20022;-71
2022/01/18 01:01:01;;;;;;;0.10;0.10;;;5.80;99.90;;;;;;5011931;28;20022;-70
2022/01/18 01:03:26;;;;;;;0.10;0.10;;;5.80;99.90;;;;;;4996383;28;20062;-71
2022/01/18 01:05:52;;;;;;;0.73;0.73;;;5.80;99.90;;;;;;4991925;28;20097;-71
2022/01/18 01:08:18;;;;;;;0.10;0.10;;;5.90;99.90;;;;;;5009795;28;20435;-70
2022/01/18 01:10:44;;;;;;;0.10;0.10;;;5.90;99.90;;;;;;5010622;28;20030;-71
2022/01/18 01:13:10;;;;;;;0.10;0.10;;;5.90;99.90;;;;;;4993152;28;20157;-71
2022/01/18 01:15:56;;;;;;;0.10;0.10;;;5.90;99.90;;;;;;5007592;28;20400;-71
2022/01/18 01:34:45;;;;;;;0.10;0.10;;;5.80;99.90;;;;;;5030812;28;20033;-72
2022/01/18 01:45:04;;;;;;;0.25;0.25;;;6.00;99.90;;;;;;4996237;28;20037;-71
2022/01/18 01:47:37;;;;;;;0.10;0.10;;;6.00;99.90;;;;;;5008738;28;20045;-71
2022/01/18 01:50:19;;;;;;;0.10;0.10;;;5.90;99.90;;;;;;5010488;28;20034;-70
2022/01/18 01:52:45;;;;;;;0.10;0.10;;;5.90;99.90;;;;;;5011145;28;20037;-71
2022/01/18 01:55:11;;;;;;;0.10;0.10;;;5.90;99.90;;;;;;5022173;28;20041;-72
2022/01/18 01:57:37;;;;;;;0.10;0.10;;;6.00;99.90;;;;;;5002195;28;20038;-71
2022/01/18 02:00:14;;;;;;;0.10;0.10;;;6.10;99.90;;;;;;5002859;28;20049;-72
2022/01/18 02:02:39;;;;;;;0.10;0.10;;;6.10;99.90;;;;;;5009939;28;20018;-72
2022/01/18 02:05:06;;;;;;;0.00;0.00;;;6.10;99.90;;;;;;5010482;28;20034;-71
2022/01/18 02:07:32;;;;;;;0.10;0.10;;;6.00;99.90;;;;;;4995535;28;20026;-71
2022/01/18 02:09:58;;;;;;;0.10;0.10;;;5.90;99.90;;;;;;4990239;28;20491;-72
2022/01/18 02:12:24;;;;;;;0.10;0.10;;;6.00;99.90;;;;;;4990317;28;20038;-72
2022/01/18 02:14:57;;;;;;;0.10;0.10;;;5.90;99.90;;;;;;5011329;28;20060;-71
2022/01/18 02:22:54;;;;;;;0.15;0.15;;;5.60;99.90;;;;;;5029938;28;20423;-72
2022/01/18 02:25:20;;;;;;;0.10;0.10;;;5.60;99.90;;;;;;4992527;28;20096;-71
2022/01/18 02:27:45;;;;;;;0.10;0.10;;;5.70;99.90;;;;;;4993400;28;20484;-71
2022/01/18 02:30:11;;;;;;;0.10;0.10;;;5.70;99.90;;;;;;5010102;28;20040;-71
2022/01/18 02:32:38;;;;;;;0.10;0.10;;;5.60;99.90;;;;;;5005144;28;20026;-71
2022/01/18 02:35:05;;;;;;;0.10;0.10;;;5.30;99.90;;;;;;5017447;28;20026;-71
2022/01/18 02:37:31;;;;;;;0.10;0.10;;;5.50;99.90;;;;;;5026413;28;20056;-71
2022/01/18 02:39:56;;;;;;;0.10;0.10;;;5.70;99.90;;;;;;5029702;28;20026;-71
2022/01/18 02:42:27;;;;;;;0.10;0.10;;;5.80;99.90;;;;;;5006466;28;20094;-72
2022/01/18 02:44:53;;;;;;;0.10;0.10;;;5.80;99.90;;;;;;5008545;28;20054;-70
2022/01/18 02:47:20;;;;;;;0.10;0.10;;;5.80;99.90;;;;;;5009705;28;20037;-72
2022/01/18 02:49:47;;;;;;;0.10;0.10;;;5.90;99.90;;;;;;4999538;28;20216;-71
2022/01/18 02:52:17;;;;;;;0.00;0.00;;;5.90;99.90;;;;;;4989921;28;20061;-71
2022/01/18 02:54:43;;;;;;;0.10;0.10;;;6.00;99.90;;;;;;5011124;28;20109;-73
2022/01/18 02:57:13;;;;;;;0.10;0.10;;;5.90;99.90;;;;;;5009451;28;20543;-71
2022/01/18 03:05:04;;;;;;;0.10;0.10;;;5.70;99.90;;;;;;4990403;28;20041;-71
2022/01/18 03:07:30;;;;;;;0.10;0.10;;;5.70;99.90;;;;;;4999399;28;20041;-70
2022/01/18 03:09:55;;;;;;;0.10;0.10;;;5.50;99.90;;;;;;5014243;28;20545;-70
2022/01/18 03:12:21;;;;;;;0.10;0.10;;;5.60;99.90;;;;;;5022153;28;20104;-71
2022/01/18 03:14:47;;;;;;;0.10;0.10;;;5.70;99.90;;;;;;5013403;28;20040;-70
2022/01/18 03:17:12;;;;;;;0.20;0.20;;;5.70;99.90;;;;;;5009217;28;20068;-70
2022/01/18 03:19:38;;;;;;;0.10;0.10;;;5.60;99.90;;;;;;5007229;28;20050;-72
2022/01/18 03:22:04;;;;;;;0.20;0.20;;;5.60;99.90;;;;;;5020619;28;20028;-71
2022/01/18 03:29:57;;;;;;;0.10;0.10;;;5.70;99.90;;;;;;5004195;28;20044;-72
2022/01/18 03:32:22;;;;;;;0.10;0.10;;;5.60;99.90;;;;;;5009267;28;20038;-72
2022/01/18 03:34:48;;;;;;;0.15;0.15;;;5.70;99.90;;;;;;5009593;28;20496;-72
2022/01/18 03:37:13;;;;;;;0.08;0.08;;;5.70;99.90;;;;;;5008740;28;20022;-71
2022/01/18 03:39:39;;;;;;;0.10;0.10;;;5.70;99.90;;;;;;5011814;28;20038;-71
2022/01/18 03:42:48;;;;;;;0.10;0.10;;;5.60;99.90;;;;;;5012723;28;20022;-70
2022/01/18 03:44:56;;;;;;;0.10;0.10;;;5.70;99.90;;;;;;5009527;28;20117;-70
2022/01/18 03:47:22;;;;;;;0.10;0.10;;;5.70;99.90;;;;;;5009561;28;20026;-71
2022/01/18 03:49:48;;;;;;;0.10;0.10;;;5.70;99.90;;;;;;5012953;28;20085;-71
2022/01/18 03:52:14;;;;;;;0.10;0.10;;;5.70;99.90;;;;;;5012709;28;20034;-71
2022/01/18 03:54:43;;;;;;;0.10;0.10;;;5.70;99.90;;;;;;5005759;28;20109;-71
2022/01/18 03:57:10;;;;;;;0.38;0.38;;;5.70;99.90;;;;;;5012685;28;20045;-71
2022/01/18 03:59:36;;;;;;;0.10;0.10;;;5.80;99.90;;;;;;5012478;28;20021;-71
2022/01/18 04:02:02;;;;;;;0.10;0.10;;;5.80;99.90;;;;;;5011500;28;20077;-71
2022/01/18 04:04:28;;;;;;;0.10;0.10;;;5.70;99.90;;;;;;4993093;28;20037;-71
2022/01/18 04:06:53;;;;;;;0.40;0.40;;;5.70;99.90;;;;;;5012271;28;20075;-71
2022/01/18 04:09:20;;;;;;;0.25;0.25;;;5.70;99.90;;;;;;5016897;28;20582;-71
2022/01/18 04:11:46;;;;;;;0.20;0.20;;;5.70;99.90;;;;;;5016292;28;20030;-71
2022/01/18 04:14:12;;;;;;;0.10;0.10;;;5.80;99.90;;;;;;4995761;28;20076;-71
2022/01/18 04:16:45;;;;;;;4.15;3.72;;;5.70;99.90;;;;;;5012564;28;20503;-71
2022/01/18 04:25:46;;;;;;;0.10;0.10;;;5.70;99.90;;;;;;5012458;28;20021;-71
2022/01/18 04:27:34;;;;;;;0.00;0.00;;;5.80;99.90;;;;;;5004805;28;20160;-70
2022/01/18 04:30:00;;;;;;;1.65;1.55;;;5.80;99.90;;;;;;5011919;28;20029;-72
2022/01/18 04:32:25;;;;;;;0.82;0.50;;;5.70;99.90;;;;;;4998062;28;20030;-71
2022/01/18 04:34:51;;;;;;;0.17;0.17;;;5.70;99.90;;;;;;4992570;28;20438;-71
2022/01/18 04:37:16;;;;;;;0.20;0.20;;;5.60;99.90;;;;;;5005714;28;20030;-71
2022/01/18 04:39:45;;;;;;;0.10;0.10;;;5.60;99.90;;;;;;5011912;28;20034;-71
2022/01/18 04:42:40;;;;;;;2.85;2.65;;;5.60;99.90;;;;;;4994853;28;20400;-72
2022/01/18 04:50:27;;;;;;;0.17;0.17;;;5.70;99.90;;;;;;5005116;28;20088;-71
2022/01/18 04:52:53;;;;;;;0.00;0.00;;;5.60;99.90;;;;;;5011660;28;20113;-71
2022/01/18 04:55:19;;;;;;;0.10;0.10;;;5.70;99.90;;;;;;5011918;28;20033;-71
2022/01/18 04:57:52;;;;;;;0.10;0.10;;;5.70;99.90;;;;;;5004266;28;20030;-71
2022/01/18 05:00:18;;;;;;;0.00;0.00;;;5.70;99.90;;;;;;5002605;28;20124;-71
2022/01/18 05:02:44;;;;;;;1.13;1.13;;;5.70;99.90;;;;;;5017605;28;20475;-70
2022/01/18 05:05:11;;;;;;;0.75;0.75;;;5.80;99.90;;;;;;5015052;28;20022;-72
2022/01/18 05:07:38;;;;;;;0.50;0.50;;;5.80;99.90;;;;;;5004437;28;20610;-70
2022/01/18 05:10:04;;;;;;;0.20;0.20;;;5.80;99.90;;;;;;5011176;28;20025;-71
2022/01/18 05:12:43;;;;;;;0.00;0.00;;;5.70;99.90;;;;;;5011067;28;20037;-72
2022/01/18 05:15:33;;;;;;;0.10;0.10;;;5.70;99.90;;;;;;5001559;28;20113;-72
2022/01/18 05:18:13;;;;;;;0.10;0.10;;;5.60;99.90;;;;;;5005658;28;20062;-70
2022/01/18 05:21:08;;;;;;;0.10;0.10;;;5.60;99.90;;;;;;5006676;28;20481;-72
2022/01/18 05:23:30;;;;;;;0.90;0.90;;;5.70;99.90;;;;;;4991017;28;20023;-71
2022/01/18 05:25:55;;;;;;;0.10;0.10;;;5.70;99.90;;;;;;4991631;28;20080;-72
2022/01/18 05:28:21;;;;;;;0.20;0.20;;;5.60;99.90;;;;;;4999436;28;20036;-71
2022/01/18 05:30:47;;;;;;;0.98;0.98;;;5.60;99.90;;;;;;5011012;28;20033;-70
2022/01/18 05:33:12;;;;;;;0.10;0.10;;;5.60;99.90;;;;;;5007502;28;20054;-71
2022/01/18 05:35:38;;;;;;;0.00;0.00;;;5.60;99.90;;;;;;5008404;28;20030;-71
2022/01/18 05:38:05;;;;;;;0.05;0.05;;;5.40;99.90;;;;;;5010524;28;20049;-71
2022/01/18 05:40:31;;;;;;;0.10;0.10;;;5.40;99.90;;;;;;5010790;28;20022;-71
2022/01/18 05:42:56;;;;;;;0.10;0.10;;;5.50;99.90;;;;;;5005865;28;20064;-73
2022/01/18 05:45:22;;;;;;;0.10;0.10;;;5.50;99.90;;;;;;5010484;28;20761;-71
2022/01/18 05:47:48;;;;;;;0.20;0.20;;;5.40;99.90;;;;;;5034294;23;20076;-73
2022/01/18 05:50:14;;;;;;;0.10;0.10;;;5.40;99.90;;;;;;5105706;28;20421;-71
2022/01/18 05:52:41;;;;;;;0.57;0.57;;;5.40;99.90;;;;;;5109154;28;20442;-72
2022/01/18 05:55:08;;;;;;;0.17;0.17;;;5.40;99.90;;;;;;5110324;28;20100;-72
2022/01/18 05:57:35;;;;;;;0.10;0.10;;;5.50;99.90;;;;;;5086788;28;20453;-72
2022/01/18 06:00:04;;;;;;;0.10;0.10;;;5.40;99.90;;;;;;5104337;28;20054;-72
2022/01/18 06:07:42;;;;;;;0.10;0.10;;;5.40;99.90;;;;;;5109344;28;20193;-72
2022/01/18 06:10:08;;;;;;;0.10;0.10;;;5.50;99.90;;;;;;5102950;28;20126;-73
2022/01/18 06:12:34;;;;;;;0.17;0.17;;;5.50;99.90;;;;;;5109755;28;20481;-73
2022/01/18 06:15:00;;;;;;;0.10;0.10;;;5.50;99.90;;;;;;5087169;28;20081;-73
2022/01/18 06:17:26;;;;;;;0.93;0.93;;;5.40;99.90;;;;;;5107752;28;20050;-73
2022/01/18 06:19:51;;;;;;;0.10;0.10;;;5.40;99.90;;;;;;5109826;28;20500;-73
2022/01/18 06:22:17;;;;;;;0.10;0.10;;;5.50;99.90;;;;;;5105744;28;20024;-72
2022/01/18 06:24:43;;;;;;;11.30;2.90;;;5.50;99.90;;;;;;5089599;28;20028;-72
2022/01/18 06:27:09;;;;;;;1.55;1.45;;;5.50;99.90;;;;;;5107785;28;20047;-72
2022/01/18 06:29:36;;;;;;;0.10;0.10;;;5.50;99.90;;;;;;5109680;28;20024;-72
2022/01/18 06:32:05;;;;;;;0.55;0.55;;;5.50;99.90;;;;;;5103172;28;20075;-73
2022/01/18 06:34:30;;;;;;;0.10;0.10;;;5.40;99.90;;;;;;5108572;28;20108;-73
2022/01/18 06:36:56;;;;;;;0.10;0.10;;;5.40;99.90;;;;;;5109765;28;20441;-72
2022/01/18 06:39:22;;;;;;;0.10;0.10;;;5.40;99.90;;;;;;5109136;28;20438;-72
2022/01/18 06:41:47;;;;;;;0.10;0.10;;;5.40;99.90;;;;;;5093604;28;20020;-74
2022/01/18 06:44:14;;;;;;;2.42;2.22;;;5.40;99.90;;;;;;5109518;28;20073;-73
2022/01/18 06:46:40;;;;;;;0.00;0.00;;;5.30;99.90;;;;;;5110330;28;20024;-74
2022/01/18 06:49:06;;;;;;;0.10;0.10;;;5.30;99.90;;;;;;5103513;28;20077;-74
2022/01/18 06:51:32;;;;;;;0.38;0.38;;;5.40;99.90;;;;;;5109521;28;20055;-73
2022/01/18 06:53:58;;;;;;;0.10;0.10;;;5.50;99.90;;;;;;5109462;28;20099;-72
2022/01/18 06:56:26;;;;;;;0.20;0.20;;;5.50;99.90;;;;;;5106840;28;20103;-73
2022/01/18 06:58:53;;;;;;;0.10;0.10;;;5.50;99.90;;;;;;5109617;28;20356;-72
2022/01/18 07:01:19;;;;;;;2.83;1.70;;;5.50;99.90;;;;;;5104313;28;20031;-72
2022/01/18 07:03:47;;;;;;;1.25;1.25;;;5.50;99.90;;;;;;5109063;28;20020;-73
2022/01/18 07:06:12;;;;;;;0.10;0.10;;;5.40;99.90;;;;;;5109068;28;20106;-73
2022/01/18 07:08:38;;;;;;;0.10;0.10;;;5.40;99.90;;;;;;5096460;28;20557;-73
2022/01/18 07:11:07;;;;;;;0.10;0.10;;;5.40;99.90;;;;;;5100198;28;20024;-73
2022/01/18 07:13:33;;;;;;;0.10;0.10;;;5.50;99.90;;;;;;5106074;28;20020;-73
2022/01/18 07:15:59;;;;;;;0.10;0.10;;;5.50;99.90;;;;;;5110907;28;20035;-73
2022/01/18 07:18:25;;;;;;;0.28;0.28;;;5.40;99.90;;;;;;5108987;28;20426;-74
2022/01/18 07:20:51;;;;;;;0.32;0.32;;;5.40;99.90;;;;;;5110697;28;20085;-74
2022/01/18 07:23:18;;;;;;;0.30;0.30;;;5.40;99.90;;;;;;5109457;28;20024;-73
2022/01/18 07:25:46;;;;;;;0.10;0.10;;;5.40;99.90;;;;;;5109818;28;20032;-73
2022/01/18 07:28:13;;;;;;;0.15;0.15;;;5.50;99.90;;;;;;5102733;28;20043;-72
2022/01/18 07:30:40;;;;;;;0.80;0.80;;;5.50;99.90;;;;;;5106125;28;20031;-72
2022/01/18 07:33:06;;;;;;;0.10;0.10;;;5.60;99.90;;;;;;5106370;27;20035;-72
2022/01/18 07:35:34;;;;;;;0.10;0.10;;;5.60;99.90;;;;;;5110442;28;20027;-73
2022/01/18 07:38:01;;;;;;;0.10;0.10;;;5.60;99.90;;;;;;5104723;28;20032;-73
2022/01/18 07:40:28;;;;;;;0.10;0.10;;;5.70;99.90;;;;;;5102582;28;20024;-73
2022/01/18 07:42:54;;;;;;;0.10;0.10;;;5.70;99.90;;;;;;5107040;28;20116;-74
2022/01/18 07:45:21;;;;;;;0.90;0.90;;;5.70;99.90;;;;;;5111120;28;20098;-73
2022/01/18 07:47:47;;;;;;;0.17;0.17;;;5.70;99.90;;;;;;5097310;28;20376;-73
2022/01/18 07:50:12;;;;;;;0.10;0.10;;;5.70;99.90;;;;;;5111571;28;20028;-72
2022/01/18 07:52:38;;;;;;;0.10;0.10;;;5.70;99.90;;;;;;5098670;27;20135;-74
2022/01/18 07:55:05;;;;;;;0.10;0.10;;;5.80;99.90;;;;;;5121119;27;20053;-73
2022/01/18 07:57:31;;;;;;;0.10;0.10;;;5.80;99.90;;;;;;5111526;28;20111;-74
2022/01/18 07:59:57;;;;;;;0.50;0.50;;;5.60;99.90;;;;;;5107293;27;20473;-73
2022/01/18 08:02:23;;;;;;;0.30;0.30;;;5.70;99.90;;;;;;5106801;28;20031;-74
2022/01/18 08:04:49;;;;;;;0.10;0.10;;;5.80;99.90;;;;;;5103857;28;20032;-72
2022/01/18 08:07:15;;;;;;;0.10;0.10;;;6.10;99.90;;;;;;5089245;28;20028;-72
2022/01/18 08:09:40;;;;;;;0.10;0.10;;;5.40;99.90;;;;;;5101851;28;20056;-73
2022/01/18 08:12:07;;;;;;;0.10;0.10;;;5.30;99.90;;;;;;5109378;28;20438;-74
2022/01/18 08:14:34;;;;;;;0.10;0.10;;;5.40;99.90;;;;;;5104221;28;20024;-74
2022/01/18 08:17:00;;;;;;;0.10;0.10;;;5.50;99.90;;;;;;5110009;27;20122;-74
2022/01/18 08:19:28;;;;;;;0.10;0.10;;;5.60;99.90;;;;;;5103652;28;20369;-77
2022/01/18 08:21:54;;;;;;;0.10;0.10;;;5.70;99.90;;;;;;5107761;28;20479;-73
2022/01/18 08:24:20;;;;;;;0.10;0.10;;;5.60;99.90;;;;;;5100793;28;20036;-74
2022/01/18 08:26:46;;;;;;;0.10;0.10;;;5.60;99.90;;;;;;5108797;28;20031;-73
2022/01/18 08:29:14;;;;;;;0.10;0.10;;;5.60;99.90;;;;;;5105802;28;20031;-74
2022/01/18 08:31:41;;;;;;;0.10;0.10;;;5.60;99.90;;;;;;5109838;28;20035;-74
2022/01/18 08:34:07;;;;;;;1.00;1.00;;;5.50;99.90;;;;;;5106639;28;20027;-74
2022/01/18 08:36:33;;;;;;;0.10;0.10;;;5.60;99.90;;;;;;5110533;28;20532;-75
2022/01/18 08:39:00;;;;;;;0.10;0.10;;;5.60;99.90;;;;;;5106202;28;20059;-74
2022/01/18 08:41:26;;;;;;;0.10;0.10;;;5.60;99.90;;;;;;5101754;28;20103;-73
2022/01/18 08:43:53;;;;;;;0.10;0.10;;;5.60;99.90;;;;;;5106267;27;20020;-74
2022/01/18 08:46:19;;;;;;;0.95;0.95;;;5.70;99.90;;;;;;5106948;28;20045;-76
2022/01/18 08:48:45;;;;;;;0.22;0.22;;;5.60;99.90;;;;;;5110960;27;20027;-74
2022/01/18 08:51:11;;;;;;;0.10;0.10;;;5.70;99.90;;;;;;5108658;28;20067;-74
2022/01/18 08:53:38;;;;;;;0.20;0.20;;;5.80;99.90;;;;;;5104613;28;20484;-74
2022/01/18 08:56:05;;;;;;;0.10;0.10;;;5.90;99.90;;;;;;5101898;28;20058;-73
2022/01/18 08:58:32;;;;;;;0.10;0.10;;;5.90;99.90;;;;;;5101914;28;20032;-76
2022/01/18 09:00:57;;;;;;;0.10;0.10;;;5.90;99.90;;;;;;5102757;28;20042;-75
2022/01/18 09:03:23;;;;;;;0.10;0.10;;;5.80;99.90;;;;;;5103634;28;20438;-74
2022/01/18 09:05:50;;;;;;;0.10;0.10;;;6.00;99.90;;;;;;5105115;28;20039;-75
2022/01/18 09:08:18;;;;;;;0.57;0.57;;;6.10;99.90;;;;;;5107201;28;20119;-74
2022/01/18 09:10:46;;;;;;;0.00;0.00;;;6.10;99.90;;;;;;5107074;28;20070;-74
2022/01/18 09:13:12;;;;;;;0.20;0.20;;;6.10;99.90;;;;;;5100706;28;20043;-74
2022/01/18 09:15:38;;;;;;;2.85;1.80;;;6.20;99.90;;;;;;5103272;28;20062;-74
2022/01/18 09:18:04;;;;;;;0.10;0.10;;;6.40;99.90;;;;;;5103524;27;20103;-74
2022/01/18 09:20:31;;;;;;;0.00;0.00;;;6.40;99.90;;;;;;5102486;28;20028;-74
2022/01/18 09:22:56;;;;;;;0.10;0.10;;;6.50;99.90;;;;;;5103120;28;20423;-74
2022/01/18 09:25:27;;;;;;;0.10;0.10;;;6.30;99.90;;;;;;5102200;28;20039;-74
2022/01/18 09:27:53;;;;;;;0.10;0.10;;;6.30;99.90;;;;;;5102855;28;20031;-73
2022/01/18 09:30:20;;;;;;;0.10;0.10;;;6.30;99.90;;;;;;5107613;28;20055;-73
2022/01/18 09:32:47;;;;;;;0.10;0.10;;;6.40;99.90;;;;;;5109255;28;20096;-74
2022/01/18 09:35:14;;;;;;;0.00;0.00;;;6.50;99.90;;;;;;5106392;28;20046;-73
2022/01/18 09:37:41;;;;;;;0.10;0.10;;;6.40;99.90;;;;;;5108082;28;20031;-74
2022/01/18 09:40:07;;;;;;;0.15;0.15;;;6.50;99.90;;;;;;5105517;28;20095;-75
2022/01/18 09:42:36;;;;;;;0.10;0.10;;;6.60;99.90;;;;;;5095391;28;20156;-74
2022/01/18 09:45:06;;;;;;;0.00;0.00;;;6.50;99.90;;;;;;5106613;27;20040;-74
2022/01/18 09:47:31;;;;;;;0.00;0.00;;;6.60;99.90;;;;;;5103602;27;20110;-73
2022/01/18 09:49:58;;;;;;;0.10;0.10;;;6.60;99.90;;;;;;5105792;28;20127;-74
2022/01/18 09:52:23;;;;;;;0.10;0.10;;;6.50;99.90;;;;;;5105537;28;20051;-74
2022/01/18 09:54:49;;;;;;;0.13;0.13;;;6.40;99.90;;;;;;5104648;28;20063;-75
2022/01/18 09:57:15;;;;;;;1.65;1.55;;;6.40;99.90;;;;;;5108626;28;20469;-74
2022/01/18 09:59:40;;;;;;;0.55;0.55;;;6.50;99.90;;;;;;5103022;28;20054;-74
2022/01/18 10:02:09;;;;;;;1.23;1.23;;;6.30;99.90;;;;;;5101727;28;20588;-73
2022/01/18 10:04:44;;;;;;;0.10;0.10;;;6.40;99.90;;;;;;5108101;28;20020;-72
2022/01/18 10:07:10;;;;;;;1.00;1.00;;;6.40;99.90;;;;;;5103621;28;20477;-74
2022/01/18 10:09:37;;;;;;;0.10;0.10;;;6.40;99.90;;;;;;5104762;28;20509;-75
2022/01/18 10:12:07;;;;;;;0.47;0.47;;;6.50;99.90;;;;;;5108416;28;20034;-74
2022/01/18 10:14:34;;;;;;;1.33;1.30;;;6.50;99.90;;;;;;5108573;28;20038;-74
2022/01/18 10:17:00;;;;;;;0.68;0.68;;;6.40;99.90;;;;;;5104910;28;20594;-74
2022/01/18 10:19:31;;;;;;;0.08;0.08;;;6.30;99.90;;;;;;5106125;28;20126;-74
2022/01/18 10:22:13;;;;;;;0.10;0.10;;;6.40;99.90;;;;;;5105390;28;20035;-74
2022/01/18 10:24:40;;;;;;;0.10;0.10;;;6.30;99.90;;;;;;5104652;28;20031;-74
2022/01/18 10:27:06;;;;;;;0.40;0.40;;;6.30;99.90;;;;;;5099288;28;20530;-74
2022/01/18 10:29:38;;;;;;;0.15;0.15;;;6.30;99.90;;;;;;5098895;28;20120;-74
2022/01/18 10:32:15;;;;;;;0.33;0.33;;;6.50;99.90;;;;;;5106006;28;20028;-74
2022/01/18 10:35:05;;;;;;;0.10;0.10;;;6.60;99.90;;;;;;5102752;28;20032;-75
2022/01/18 10:37:33;;;;;;;0.10;0.10;;;6.60;99.90;;;;;;5098006;28;20036;-74
2022/01/18 10:40:02;;;;;;;0.55;0.38;;;6.70;99.90;;;;;;5110189;27;20119;-74
2022/01/18 10:42:38;;;;;;;0.10;0.10;;;6.60;99.90;;;;;;5106844;28;20030;-75
2022/01/18 10:45:29;;;;;;;0.10;0.10;;;6.50;99.90;;;;;;5106866;28;20036;-73
2022/01/18 10:48:14;;;;;;;0.28;0.28;;;6.50;99.90;;;;;;5097818;28;20107;-73
2022/01/18 10:50:42;;;;;;;0.10;0.10;;;6.40;99.90;;;;;;5088634;28;20035;-76
2022/01/18 10:53:11;;;;;;;0.10;0.10;;;6.50;99.90;;;;;;5105271;28;20030;-73
2022/01/18 10:55:37;;;;;;;0.10;0.10;;;6.60;99.90;;;;;;5108367;28;20054;-74
2022/01/18 10:58:22;;;;;;;0.10;0.10;;;6.70;99.90;;;;;;5103213;28;20036;-74
2022/01/18 11:00:48;;;;;;;0.10;0.10;;;6.70;99.90;;;;;;5092470;28;20043;-74
2022/01/18 11:03:13;;;;;;;0.20;0.20;;;6.80;99.90;;;;;;5099889;28;20401;-74
2022/01/18 11:05:42;;;;;;;0.10;0.10;;;6.80;99.90;;;;;;5104781;28;20040;-72
2022/01/18 11:08:08;;;;;;;0.10;0.10;;;6.90;99.90;;;;;;5107017;28;20024;-73
2022/01/18 11:10:35;;;;;;;0.10;0.10;;;7.00;99.90;;;;;;5111121;28;20027;-73
2022/01/18 11:13:10;;;;;;;0.10;0.10;;;6.80;99.90;;;;;;5114771;28;20030;-73
2022/01/18 11:15:40;;;;;;;0.43;0.43;;;6.90;99.90;;;;;;5115251;28;20031;-76
2022/01/18 11:18:15;;;;;;;0.00;0.00;;;6.90;99.90;;;;;;5111590;28;20431;-74
2022/01/18 11:20:45;;;;;;;0.10;0.10;;;6.90;99.90;;;;;;5109033;28;20047;-76
2022/01/18 11:23:11;;;;;;;0.20;0.20;;;7.00;99.90;;;;;;5107796;28;20026;-75
2022/01/18 11:25:38;;;;;;;0.10;0.10;;;7.00;99.90;;;;;;5111873;28;20028;-74
2022/01/18 11:28:06;;;;;;;0.00;0.00;;;7.10;99.90;;;;;;5108768;28;20086;-73
2022/01/18 11:30:37;;;;;;;0.10;0.10;;;7.20;99.90;;;;;;5096561;28;20127;-78
2022/01/18 11:33:06;;;;;;;0.10;0.10;;;7.20;99.90;;;;;;5098203;28;20040;-78
2022/01/18 11:36:01;;;;;;;0.10;0.10;;;7.30;99.90;;;;;;5106447;28;20144;-78
2022/01/18 11:38:42;;;;;;;0.43;0.43;;;7.40;99.90;;;;;;5085829;28;20108;-72
2022/01/18 11:41:21;;;;;;;0.10;0.10;;;7.40;99.90;;;;;;5118751;28;20035;-79
2022/01/18 11:43:47;;;;;;;0.10;0.10;;;7.50;99.90;;;;;;5117911;28;20027;-75
2022/01/18 11:46:30;;;;;;;0.00;0.00;;;7.60;99.90;;;;;;5117169;28;20016;-77
2022/01/18 11:49:09;;;;;;;0.10;0.10;;;7.80;99.90;;;;;;5099478;22;20053;-71
2022/01/18 11:52:01;;;;;;;0.00;0.00;;;8.00;99.90;;;;;;5060937;28;20051;-72
2022/01/18 11:57:16;;;;;;;0.00;0.00;;;8.40;99.90;;;;;;5068474;28;20048;-73
2022/01/18 11:59:42;;;;;;;0.08;0.08;;;8.30;99.90;;;;;;5066692;28;20840;-72
2022/01/18 12:02:08;;;;;;;0.20;0.20;;;8.10;99.90;;;;;;5069734;28;20487;-72
2022/01/18 12:04:47;;;;;;;0.43;0.43;;;8.00;99.90;;;;;;5066150;28;20029;-71
2022/01/18 12:07:31;;;;;;;0.10;0.10;;;7.90;99.90;;;;;;5066530;28;20024;-71
2022/01/18 12:09:57;;;;;;;0.10;0.10;;;7.70;99.90;;;;;;5064229;28;20032;-71
2022/01/18 12:12:40;;;;;;;0.10;0.10;;;7.70;99.90;;;;;;5065704;28;20328;-73
2022/01/18 12:15:15;;;;;;;;;;;7.50;99.90;;;;;;5075335;28;20400;-72
2022/01/18 12:17:56;;;;;;;0.10;0.10;;;7.40;99.90;;;;;;5074538;28;21432;-72
2022/01/18 12:20:42;;;;;;;0.10;0.10;;;7.20;99.90;;;;;;5070204;28;20027;-72
2022/01/18 12:23:18;;;;;;;0.10;0.10;;;7.30;99.90;;;;;;5071379;28;20024;-72
2022/01/18 12:26:00;;;;;;;0.10;0.10;;;7.10;99.90;;;;;;5073497;28;20543;-73
2022/01/18 12:32:27;;;;;;;0.10;0.10;;;7.10;99.90;;;;;;5067677;28;20398;-72
2022/01/18 12:34:29;;;;;;;0.10;0.10;;;7.10;99.90;;;;;;5056735;28;20036;-71
2022/01/18 12:36:56;;;;;;;0.08;0.08;;;7.10;99.90;;;;;;5068596;28;20036;-71
2022/01/18 12:39:23;;;;;;;0.10;0.10;;;7.10;99.90;;;;;;5071245;28;20481;-74
2022/01/18 12:41:56;;;;;;;0.00;0.00;;;7.20;99.90;;;;;;5056475;28;20759;-73
2022/01/18 12:44:22;;;;;;;0.10;0.10;;;7.20;99.90;;;;;;5059347;28;20033;-71
2022/01/18 12:46:57;;;;;;;0.00;0.00;;;7.30;99.90;;;;;;5070157;28;20036;-73
2022/01/18 12:49:23;;;;;;;1.02;1.00;;;7.20;99.90;;;;;;5067216;28;20129;-73
2022/01/18 12:51:59;;;;;;;0.10;0.10;;;7.10;99.90;;;;;;5070319;28;20029;-71
2022/01/18 12:54:42;;;;;;;0.10;0.10;;;7.10;99.90;;;;;;5067176;28;20020;-72
2022/01/18 12:57:19;;;;;;;0.10;0.10;;;7.00;99.90;;;;;;5067338;28;20028;-72
2022/01/18 12:59:59;;;;;;;3.30;1.90;;;7.10;99.90;;;;;;5060163;28;20024;-72
2022/01/18 13:02:25;;;;;;;0.00;0.00;;;7.10;99.90;;;;;;5068001;28;20028;-72
2022/01/18 13:04:59;;;;;;;0.10;0.10;;;7.10;99.90;;;;;;5066152;28;20032;-72
2022/01/18 13:07:25;;;;;;;0.10;0.10;;;7.00;99.90;;;;;;5047625;28;20148;-70
2022/01/18 13:09:59;;;;;;;0.40;0.40;;;6.90;99.90;;;;;;5064834;28;20025;-72
2022/01/18 13:12:33;;;;;;;0.10;0.10;;;7.10;99.90;;;;;;5058921;28;20037;-71
2022/01/18 13:15:00;;;;;;;0.10;0.10;;;7.10;99.90;;;;;;5070677;28;20036;-72
2022/01/18 13:23:48;;;;;;;0.00;0.00;;;7.20;99.90;;;;;;5068694;28;20094;-72
2022/01/18 13:26:14;;;;;;;0.10;0.10;;;7.30;99.90;;;;;;5063026;28;20163;-72
2022/01/18 13:28:40;;;;;;;0.10;0.10;;;7.50;99.90;;;;;;5066303;28;20490;-73
2022/01/18 13:31:18;;;;;;;0.10;0.10;;;7.40;99.90;;;;;;5057419;28;20097;-71
2022/01/18 13:33:51;;;;;;;0.10;0.10;;;7.50;99.90;;;;;;5060051;28;20036;-72
2022/01/18 13:36:16;;;;;;;0.10;0.10;;;7.50;99.90;;;;;;5066189;28;20021;-71
2022/01/18 13:38:42;;;;;;;0.00;0.00;;;7.50;99.90;;;;;;5072689;28;20037;-73
2022/01/18 13:41:08;;;;;;;0.00;0.00;;;7.50;99.90;;;;;;5068401;28;21276;-72
2022/01/18 13:43:34;;;;;;;0.10;0.10;;;7.40;99.90;;;;;;5072257;28;20028;-72
2022/01/18 13:46:00;;;;;;;0.00;0.00;;;7.30;99.90;;;;;;5071869;28;20516;-72
2022/01/18 13:48:33;;;;;;;0.00;0.00;;;8.00;99.90;;;;;;5072003;28;20032;-71
2022/01/18 13:51:07;;;;;;;0.10;0.10;;;9.40;99.90;;;;;;5070275;28;20108;-72
2022/01/18 13:53:34;;;;;;;0.00;0.00;;;10.70;99.90;;;;;;5071767;28;20532;-73
2022/01/18 13:56:10;;;;;;;0.00;0.00;;;11.40;99.90;;;;;;5072508;28;20058;-72
2022/01/18 13:58:42;;;;;;;0.00;0.00;;;13.00;99.90;;;;;;5066532;28;20052;-73
2022/01/18 14:01:24;;;;;;;0.00;0.00;;;14.00;99.90;;;;;;5063244;28;20024;-72
2022/01/18 14:03:52;;;;;;;0.00;0.00;;;14.90;93.40;;;;;;5073629;28;20035;-73
2022/01/18 14:06:19;;;;;;;0.00;0.00;;;15.00;92.10;;;;;;5073269;28;20107;-74
2022/01/18 14:08:49;;;;;;;0.00;0.00;;;15.00;87.50;;;;;;5066932;28;20020;-72
2022/01/18 14:11:23;;;;;;;0.00;0.00;;;14.80;89.90;;;;;;5072214;28;20028;-72
2022/01/18 14:13:50;;;;;;;0.00;0.00;;;15.10;85.70;;;;;;5056487;28;20036;-73
2022/01/18 14:16:24;;;;;;;0.00;0.00;;;14.90;83.40;;;;;;5067864;28;20082;-72
2022/01/18 14:18:51;;;;;;;0.00;0.00;;;14.80;80.40;;;;;;5066371;28;20036;-71
2022/01/18 14:21:46;;;;;;;0.00;0.00;;;15.20;78.10;;;;;;5069123;28;20024;-72
2022/01/18 14:24:21;;;;;;;0.00;0.00;;;15.30;72.50;;;;;;5064149;28;20101;-71
2022/01/18 14:26:52;;;;;;;0.00;0.00;;;15.50;72.50;;;;;;5064361;28;20048;-73